sensor_id;sensor_type;location;lat;lon;timestamp;pressure;altitude;pressure_sealevel;temperature;humidity
56402;BME280;42299;35.160;26.100;2023-02-11T00:01:06;102265.81;;;9.55;100.00
56402;BME280;42299;35.160;26.100;2023-02-11T00:02:27;102273.88;;;9.58;100.00
56402;BME280;42299;35.160;26.100;2023-02-11T00:03:52;102278.34;;;9.60;100.00
56402;BME280;42299;35.160;26.100;2023-02-11T00:05:14;102273.97;;;9.61;100.00
56402;BME280;42299;35.160;26.100;2023-02-11T00:06:37;102269.63;;;9.62;100.00
56402;BME280;42299;35.160;26.100;2023-02-11T00:07:59;102274.97;;;9.63;100.00
56402;BME280;42299;35.160;26.100;2023-02-11T00:09:20;102274.97;;;9.63;100.00
56402;BME280;42299;35.160;26.100;2023-02-11T00:10:43;102272.31;;;9.63;100.00
56402;BME280;42299;35.160;26.100;2023-02-11T00:12:06;102269.75;;;9.65;100.00
56402;BME280;42299;35.160;26.100;2023-02-11T00:13:28;102265.31;;;9.64;100.00
56402;BME280;42299;35.160;26.100;2023-02-11T00:14:50;102262.72;;;9.65;100.00
56402;BME280;42299;35.160;26.100;2023-02-11T00:16:14;102264.59;;;9.68;100.00
56402;BME280;42299;35.160;26.100;2023-02-11T00:17:37;102265.44;;;9.67;100.00
56402;BME280;42299;35.160;26.100;2023-02-11T00:18:59;102258.25;;;9.63;100.00
56402;BME280;42299;35.160;26.100;2023-02-11T00:20:21;102259.81;;;9.59;100.00
56402;BME280;42299;35.160;26.100;2023-02-11T00:21:46;102256.09;;;9.54;100.00
56402;BME280;42299;35.160;26.100;2023-02-11T00:23:10;102265.63;;;9.50;100.00
56402;BME280;42299;35.160;26.100;2023-02-11T00:24:31;102264.56;;;9.47;100.00
56402;BME280;42299;35.160;26.100;2023-02-11T00:25:53;102256.56;;;9.45;100.00
56402;BME280;42299;35.160;26.100;2023-02-11T00:27:16;102258.38;;;9.46;100.00
56402;BME280;42299;35.160;26.100;2023-02-11T00:28:37;102257.44;;;9.44;100.00
56402;BME280;42299;35.160;26.100;2023-02-11T00:30:01;102255.75;;;9.46;100.00
56402;BME280;42299;35.160;26.100;2023-02-11T00:31:25;102262.84;;;9.47;100.00
56402;BME280;42299;35.160;26.100;2023-02-11T00:32:47;102253.25;;;9.49;100.00
56402;BME280;42299;35.160;26.100;2023-02-11T00:34:10;102257.72;;;9.50;100.00
56402;BME280;42299;35.160;26.100;2023-02-11T00:35:32;102256.03;;;9.52;100.00
56402;BME280;42299;35.160;26.100;2023-02-11T00:36:57;102262.28;;;9.54;100.00
56402;BME280;42299;35.160;26.100;2023-02-11T00:38:20;102255.25;;;9.55;100.00
56402;BME280;42299;35.160;26.100;2023-02-11T00:39:41;102255.41;;;9.58;100.00
56402;BME280;42299;35.160;26.100;2023-02-11T00:41:03;102254.56;;;9.59;100.00
56402;BME280;42299;35.160;26.100;2023-02-11T00:42:25;102258.16;;;9.61;100.00
56402;BME280;42299;35.160;26.100;2023-02-11T00:43:47;102259.06;;;9.62;100.00
56402;BME280;42299;35.160;26.100;2023-02-11T00:45:13;102261.63;;;9.60;100.00
56402;BME280;42299;35.160;26.100;2023-02-11T00:46:35;102253.78;;;9.62;100.00
56402;BME280;42299;35.160;26.100;2023-02-11T00:47:57;102262.69;;;9.64;100.00
56402;BME280;42299;35.160;26.100;2023-02-11T00:49:18;102255.69;;;9.64;100.00
56402;BME280;42299;35.160;26.100;2023-02-11T00:50:42;102261.00;;;9.66;100.00
56402;BME280;42299;35.160;26.100;2023-02-11T00:52:05;102258.44;;;9.67;100.00
56402;BME280;42299;35.160;26.100;2023-02-11T00:53:28;102252.25;;;9.67;100.00
56402;BME280;42299;35.160;26.100;2023-02-11T00:54:51;102248.84;;;9.69;100.00
56402;BME280;42299;35.160;26.100;2023-02-11T00:56:13;102250.59;;;9.69;100.00
56402;BME280;42299;35.160;26.100;2023-02-11T00:57:35;102249.69;;;9.68;100.00
56402;BME280;42299;35.160;26.100;2023-02-11T00:58:58;102243.50;;;9.68;100.00
56402;BME280;42299;35.160;26.100;2023-02-11T01:00:20;102241.84;;;9.70;100.00
56402;BME280;42299;35.160;26.100;2023-02-11T01:01:42;102245.41;;;9.70;100.00
56402;BME280;42299;35.160;26.100;2023-02-11T01:03:07;102240.88;;;9.68;100.00
56402;BME280;42299;35.160;26.100;2023-02-11T01:04:31;102240.75;;;9.65;100.00
56402;BME280;42299;35.160;26.100;2023-02-11T01:05:54;102237.22;;;9.64;100.00
56402;BME280;42299;35.160;26.100;2023-02-11T01:07:18;102241.59;;;9.64;100.00
56402;BME280;42299;35.160;26.100;2023-02-11T01:08:42;102246.88;;;9.64;100.00
56402;BME280;42299;35.160;26.100;2023-02-11T01:10:07;102238.06;;;9.63;100.00
56402;BME280;42299;35.160;26.100;2023-02-11T01:11:29;102238.13;;;9.65;100.00
56402;BME280;42299;35.160;26.100;2023-02-11T01:12:51;102239.00;;;9.65;100.00
56402;BME280;42299;35.160;26.100;2023-02-11T01:14:14;102237.34;;;9.67;100.00
56402;BME280;42299;35.160;26.100;2023-02-11T01:15:36;102231.31;;;9.70;100.00
56402;BME280;42299;35.160;26.100;2023-02-11T01:16:57;102232.25;;;9.72;100.00
56402;BME280;42299;35.160;26.100;2023-02-11T01:18:20;102228.84;;;9.74;100.00
56402;BME280;42299;35.160;26.100;2023-02-11T01:19:43;102240.44;;;9.78;100.00
56402;BME280;42299;35.160;26.100;2023-02-11T01:21:05;102233.41;;;9.78;100.00
56402;BME280;42299;35.160;26.100;2023-02-11T01:22:28;102234.31;;;9.79;100.00
56402;BME280;42299;35.160;26.100;2023-02-11T01:23:51;102231.75;;;9.80;100.00
56402;BME280;42299;35.160;26.100;2023-02-11T01:25:13;102233.56;;;9.81;100.00
56402;BME280;42299;35.160;26.100;2023-02-11T01:26:35;102230.91;;;9.81;100.00
56402;BME280;42299;35.160;26.100;2023-02-11T01:27:57;102226.53;;;9.82;100.00
56402;BME280;42299;35.160;26.100;2023-02-11T01:29:18;102234.47;;;9.82;100.00
56402;BME280;42299;35.160;26.100;2023-02-11T01:30:40;102237.94;;;9.81;100.00
56402;BME280;42299;35.160;26.100;2023-02-11T01:32:02;102233.47;;;9.80;100.00
56402;BME280;42299;35.160;26.100;2023-02-11T01:33:24;102237.94;;;9.81;100.00
56402;BME280;42299;35.160;26.100;2023-02-11T01:34:45;102241.41;;;9.80;100.00
56402;BME280;42299;35.160;26.100;2023-02-11T01:36:09;102237.94;;;9.81;100.00
56402;BME280;42299;35.160;26.100;2023-02-11T01:37:33;102237.94;;;9.81;100.00
56402;BME280;42299;35.160;26.100;2023-02-11T01:38:56;102227.31;;;9.79;100.00
56402;BME280;42299;35.160;26.100;2023-02-11T01:40:17;102229.94;;;9.79;100.00
56402;BME280;42299;35.160;26.100;2023-02-11T01:41:40;102227.31;;;9.79;100.00
56402;BME280;42299;35.160;26.100;2023-02-11T01:43:02;102227.38;;;9.81;100.00
56402;BME280;42299;35.160;26.100;2023-02-11T01:44:25;102223.84;;;9.80;100.00
56402;BME280;42299;35.160;26.100;2023-02-11T01:46:00;102224.66;;;9.79;100.00
56402;BME280;42299;35.160;26.100;2023-02-11T01:47:24;102229.94;;;9.79;100.00
56402;BME280;42299;35.160;26.100;2023-02-11T01:48:48;102223.75;;;9.79;100.00
56402;BME280;42299;35.160;26.100;2023-02-11T01:50:15;102228.94;;;9.76;100.00
56402;BME280;42299;35.160;26.100;2023-02-11T01:51:39;102223.66;;;9.76;100.00
56402;BME280;42299;35.160;26.100;2023-02-11T01:53:04;102229.69;;;9.73;100.00
56402;BME280;42299;35.160;26.100;2023-02-11T01:54:42;102227.75;;;9.69;100.00
56402;BME280;42299;35.160;26.100;2023-02-11T01:56:24;102228.44;;;9.65;100.00
56402;BME280;42299;35.160;26.100;2023-02-11T01:58:06;102224.78;;;9.62;100.00
56402;BME280;42299;35.160;26.100;2023-02-11T01:59:32;102219.44;;;9.60;100.00
56402;BME280;42299;35.160;26.100;2023-02-11T02:00:55;102222.00;;;9.58;100.00
56402;BME280;42299;35.160;26.100;2023-02-11T02:02:21;102225.44;;;9.56;100.00
56402;BME280;42299;35.160;26.100;2023-02-11T02:03:46;102221.75;;;9.52;100.00
56402;BME280;42299;35.160;26.100;2023-02-11T02:05:19;102219.81;;;9.48;100.00
56402;BME280;42299;35.160;26.100;2023-02-11T02:06:49;102218.81;;;9.45;100.00
56402;BME280;42299;35.160;26.100;2023-02-11T02:08:22;102213.25;;;9.39;100.00
56402;BME280;42299;35.160;26.100;2023-02-11T02:09:54;102225.31;;;9.34;100.00
56402;BME280;42299;35.160;26.100;2023-02-11T02:11:20;102211.97;;;9.29;100.00
56402;BME280;42299;35.160;26.100;2023-02-11T02:12:44;102209.16;;;9.26;100.00
56402;BME280;42299;35.160;26.100;2023-02-11T02:14:05;102211.81;;;9.26;100.00
56402;BME280;42299;35.160;26.100;2023-02-11T02:15:31;102211.88;;;9.28;100.00
56402;BME280;42299;35.160;26.100;2023-02-11T02:16:56;102212.72;;;9.27;100.00
56402;BME280;42299;35.160;26.100;2023-02-11T02:18:31;102206.59;;;9.28;100.00
56402;BME280;42299;35.160;26.100;2023-02-11T02:24:47;102204.41;;;9.17;100.00
56402;BME280;42299;35.160;26.100;2023-02-11T02:28:22;102192.81;;;9.14;100.00
56402;BME280;42299;35.160;26.100;2023-02-11T02:30:13;102191.09;;;9.14;100.00
56402;BME280;42299;35.160;26.100;2023-02-11T02:31:52;102189.56;;;9.19;100.00
56402;BME280;42299;35.160;26.100;2023-02-11T02:33:29;102187.91;;;9.22;100.00
56402;BME280;42299;35.160;26.100;2023-02-11T02:34:59;102192.41;;;9.24;100.00
56402;BME280;42299;35.160;26.100;2023-02-11T02:36:26;102186.34;;;9.27;100.00
56402;BME280;42299;35.160;26.100;2023-02-11T02:37:56;102186.63;;;9.33;100.00
56402;BME280;42299;35.160;26.100;2023-02-11T02:39:30;102186.03;;;9.38;100.00
56402;BME280;42299;35.160;26.100;2023-02-11T02:40:58;102183.50;;;9.41;100.00
56402;BME280;42299;35.160;26.100;2023-02-11T02:42:22;102183.69;;;9.46;100.00
56402;BME280;42299;35.160;26.100;2023-02-11T02:43:48;102177.81;;;9.51;100.00
56402;BME280;42299;35.160;26.100;2023-02-11T02:45:10;102178.06;;;9.57;100.00
56402;BME280;42299;35.160;26.100;2023-02-11T02:46:33;102181.84;;;9.64;100.00
56402;BME280;42299;35.160;26.100;2023-02-11T02:47:55;102171.56;;;9.70;100.00
56402;BME280;42299;35.160;26.100;2023-02-11T02:49:19;102173.56;;;9.76;100.00
56402;BME280;42299;35.160;26.100;2023-02-11T02:50:41;102173.06;;;9.86;100.00
56402;BME280;42299;35.160;26.100;2023-02-11T02:52:18;102174.22;;;9.92;100.00
56402;BME280;42299;35.160;26.100;2023-02-11T02:53:56;102177.25;;;10.02;100.00
56402;BME280;42299;35.160;26.100;2023-02-11T02:55:27;102170.47;;;10.08;100.00
56402;BME280;42299;35.160;26.100;2023-02-11T02:57:00;102176.06;;;10.16;100.00
56402;BME280;42299;35.160;26.100;2023-02-11T03:00:42;102174.78;;;10.27;100.00
56402;BME280;42299;35.160;26.100;2023-02-11T03:02:11;102175.81;;;10.30;100.00
56402;BME280;42299;35.160;26.100;2023-02-11T03:03:42;102183.91;;;10.35;100.00
56402;BME280;42299;35.160;26.100;2023-02-11T03:05:14;102174.44;;;10.40;100.00
56402;BME280;42299;35.160;26.100;2023-02-11T03:06:45;102176.28;;;10.43;100.00
56402;BME280;42299;35.160;26.100;2023-02-11T03:08:12;102175.44;;;10.44;100.00
56402;BME280;42299;35.160;26.100;2023-02-11T03:09:40;102186.88;;;10.44;100.00
56402;BME280;42299;35.160;26.100;2023-02-11T03:11:08;102182.47;;;10.43;100.00
56402;BME280;42299;35.160;26.100;2023-02-11T03:12:32;102184.31;;;10.46;100.00
56402;BME280;42299;35.160;26.100;2023-02-11T03:13:56;102172.09;;;10.48;100.00
56402;BME280;42299;35.160;26.100;2023-02-11T03:15:21;102183.63;;;10.50;100.00
56402;BME280;42299;35.160;26.100;2023-02-11T03:16:45;102175.72;;;10.51;100.00
56402;BME280;42299;35.160;26.100;2023-02-11T03:18:14;102181.97;;;10.53;100.00
56402;BME280;42299;35.160;26.100;2023-02-11T03:19:38;102177.66;;;10.55;100.00
56402;BME280;42299;35.160;26.100;2023-02-11T03:21:04;102180.34;;;10.57;100.00
56402;BME280;42299;35.160;26.100;2023-02-11T03:22:32;102173.50;;;10.62;100.00
56402;BME280;42299;35.160;26.100;2023-02-11T03:23:58;102178.06;;;10.66;100.00
56402;BME280;42299;35.160;26.100;2023-02-11T03:25:22;102181.78;;;10.71;100.00
56402;BME280;42299;35.160;26.100;2023-02-11T03:26:51;102177.44;;;10.73;100.00
56402;BME280;42299;35.160;26.100;2023-02-11T03:28:19;102188.03;;;10.73;100.00
56402;BME280;42299;35.160;26.100;2023-02-11T03:29:50;102182.66;;;10.71;100.00
56402;BME280;42299;35.160;26.100;2023-02-11T03:31:17;102185.25;;;10.70;100.00
56402;BME280;42299;35.160;26.100;2023-02-11T03:32:48;102179.03;;;10.68;100.00
56402;BME280;42299;35.160;26.100;2023-02-11T03:34:15;102166.75;;;10.70;100.00
56402;BME280;42299;35.160;26.100;2023-02-11T03:35:42;102174.75;;;10.71;100.00
56402;BME280;42299;35.160;26.100;2023-02-11T03:37:13;102172.94;;;10.70;100.00
56402;BME280;42299;35.160;26.100;2023-02-11T03:38:41;102172.94;;;10.70;100.00
56402;BME280;42299;35.160;26.100;2023-02-11T03:40:07;102174.66;;;10.68;100.00
56402;BME280;42299;35.160;26.100;2023-02-11T03:41:32;102171.09;;;10.68;100.00
56402;BME280;42299;35.160;26.100;2023-02-11T03:42:58;102171.28;;;10.72;100.00
56402;BME280;42299;35.160;26.100;2023-02-11T03:44:23;102170.53;;;10.76;100.00
56402;BME280;42299;35.160;26.100;2023-02-11T03:45:50;102176.72;;;10.77;100.00
56402;BME280;42299;35.160;26.100;2023-02-11T03:47:16;102170.66;;;10.79;100.00
56402;BME280;42299;35.160;26.100;2023-02-11T03:48:43;102177.81;;;10.82;100.00
56402;BME280;42299;35.160;26.100;2023-02-11T03:50:07;102181.34;;;10.83;100.00
56402;BME280;42299;35.160;26.100;2023-02-11T03:51:32;102176.06;;;10.83;100.00
56402;BME280;42299;35.160;26.100;2023-02-11T03:52:56;102165.50;;;10.83;100.00
56402;BME280;42299;35.160;26.100;2023-02-11T03:54:23;102176.91;;;10.82;100.00
56402;BME280;42299;35.160;26.100;2023-02-11T03:55:46;102175.19;;;10.84;100.00
56402;BME280;42299;35.160;26.100;2023-02-11T03:57:10;102173.59;;;10.87;100.00
56402;BME280;42299;35.160;26.100;2023-02-11T03:58:31;102169.22;;;10.88;100.00
56402;BME280;42299;35.160;26.100;2023-02-11T03:59:55;102166.56;;;10.88;100.00
56402;BME280;42299;35.160;26.100;2023-02-11T04:01:17;102166.63;;;10.89;100.00
56402;BME280;42299;35.160;26.100;2023-02-11T04:02:40;102170.13;;;10.90;100.00
56402;BME280;42299;35.160;26.100;2023-02-11T04:04:03;102160.47;;;10.90;100.00
56402;BME280;42299;35.160;26.100;2023-02-11T04:05:26;102167.50;;;10.90;100.00
56402;BME280;42299;35.160;26.100;2023-02-11T04:06:47;102158.72;;;10.89;100.00
56402;BME280;42299;35.160;26.100;2023-02-11T04:08:11;102165.72;;;10.89;100.00
56402;BME280;42299;35.160;26.100;2023-02-11T04:09:33;102177.19;;;10.89;100.00
56402;BME280;42299;35.160;26.100;2023-02-11T04:10:56;102165.72;;;10.89;100.00
56402;BME280;42299;35.160;26.100;2023-02-11T04:12:18;102171.03;;;10.90;100.00
56402;BME280;42299;35.160;26.100;2023-02-11T04:13:43;102164.84;;;10.90;100.00
56402;BME280;42299;35.160;26.100;2023-02-11T04:15:07;102166.66;;;10.91;100.00
56402;BME280;42299;35.160;26.100;2023-02-11T04:16:33;102170.19;;;10.91;100.00
56402;BME280;42299;35.160;26.100;2023-02-11T04:17:55;102167.56;;;10.91;100.00
56402;BME280;42299;35.160;26.100;2023-02-11T04:19:23;102169.31;;;10.91;100.00
56402;BME280;42299;35.160;26.100;2023-02-11T04:20:48;102169.28;;;10.89;100.00
56402;BME280;42299;35.160;26.100;2023-02-11T04:22:11;102167.47;;;10.88;100.00
56402;BME280;42299;35.160;26.100;2023-02-11T04:23:36;102163.88;;;10.86;100.00
56402;BME280;42299;35.160;26.100;2023-02-11T04:25:02;102174.31;;;10.83;100.00
56402;BME280;42299;35.160;26.100;2023-02-11T04:26:23;102160.16;;;10.81;100.00
56402;BME280;42299;35.160;26.100;2023-02-11T04:27:45;102162.72;;;10.79;100.00
56402;BME280;42299;35.160;26.100;2023-02-11T04:29:08;102172.41;;;10.79;100.00
56402;BME280;42299;35.160;26.100;2023-02-11T04:30:29;102168.84;;;10.78;100.00
56402;BME280;42299;35.160;26.100;2023-02-11T04:31:51;102169.69;;;10.77;100.00
56402;BME280;42299;35.160;26.100;2023-02-11T04:33:14;102170.59;;;10.78;100.00
56402;BME280;42299;35.160;26.100;2023-02-11T04:34:35;102167.03;;;10.76;100.00
56402;BME280;42299;35.160;26.100;2023-02-11T04:35:57;102166.88;;;10.73;100.00
56402;BME280;42299;35.160;26.100;2023-02-11T04:37:18;102166.00;;;10.72;100.00
56402;BME280;42299;35.160;26.100;2023-02-11T04:38:42;102172.16;;;10.73;100.00
56402;BME280;42299;35.160;26.100;2023-02-11T04:40:05;102172.94;;;10.70;100.00
56402;BME280;42299;35.160;26.100;2023-02-11T04:41:27;102173.75;;;10.68;100.00
56402;BME280;42299;35.160;26.100;2023-02-11T04:42:49;102182.56;;;10.68;100.00
56402;BME280;42299;35.160;26.100;2023-02-11T04:44:13;102170.19;;;10.67;100.00
56402;BME280;42299;35.160;26.100;2023-02-11T04:45:36;102182.50;;;10.67;100.00
56402;BME280;42299;35.160;26.100;2023-02-11T04:46:58;102171.81;;;10.64;100.00
56402;BME280;42299;35.160;26.100;2023-02-11T04:48:19;102173.50;;;10.62;100.00
56402;BME280;42299;35.160;26.100;2023-02-11T04:49:43;102176.94;;;10.59;100.00
56402;BME280;42299;35.160;26.100;2023-02-11T04:51:04;102172.41;;;10.57;100.00
56402;BME280;42299;35.160;26.100;2023-02-11T04:52:26;102173.38;;;10.59;100.00
56402;BME280;42299;35.160;26.100;2023-02-11T04:53:49;102177.00;;;10.61;100.00
56402;BME280;42299;35.160;26.100;2023-02-11T04:55:12;102179.78;;;10.65;100.00
56402;BME280;42299;35.160;26.100;2023-02-11T04:56:34;102180.78;;;10.67;100.00
56402;BME280;42299;35.160;26.100;2023-02-11T04:57:55;102175.59;;;10.70;100.00
56402;BME280;42299;35.160;26.100;2023-02-11T04:59:17;102179.19;;;10.72;100.00
56402;BME280;42299;35.160;26.100;2023-02-11T05:00:39;102174.88;;;10.74;100.00
56402;BME280;42299;35.160;26.100;2023-02-11T05:02:01;102172.31;;;10.76;100.00
56402;BME280;42299;35.160;26.100;2023-02-11T05:03:23;102177.63;;;10.77;100.00
56402;BME280;42299;35.160;26.100;2023-02-11T05:04:46;102170.59;;;10.78;100.00
56402;BME280;42299;35.160;26.100;2023-02-11T05:06:09;102188.25;;;10.79;100.00
56402;BME280;42299;35.160;26.100;2023-02-11T05:07:31;102179.47;;;10.80;100.00
56402;BME280;42299;35.160;26.100;2023-02-11T05:08:55;102169.88;;;10.82;100.00
56402;BME280;42299;35.160;26.100;2023-02-11T05:10:18;102168.03;;;10.79;100.00
56402;BME280;42299;35.160;26.100;2023-02-11T05:11:39;102161.00;;;10.80;100.00
56402;BME280;42299;35.160;26.100;2023-02-11T05:13:02;102169.81;;;10.81;100.00
56402;BME280;42299;35.160;26.100;2023-02-11T05:14:23;102175.94;;;10.79;100.00
56402;BME280;42299;35.160;26.100;2023-02-11T05:15:46;102170.59;;;10.78;100.00
56402;BME280;42299;35.160;26.100;2023-02-11T05:17:07;102173.22;;;10.78;100.00
56402;BME280;42299;35.160;26.100;2023-02-11T05:18:29;102167.84;;;10.75;100.00
56402;BME280;42299;35.160;26.100;2023-02-11T05:19:50;102175.72;;;10.73;100.00
56402;BME280;42299;35.160;26.100;2023-02-11T05:21:15;102181.00;;;10.73;100.00
56402;BME280;42299;35.160;26.100;2023-02-11T05:22:37;102186.34;;;10.75;100.00
56402;BME280;42299;35.160;26.100;2023-02-11T05:24:00;102179.31;;;10.75;100.00
56402;BME280;42299;35.160;26.100;2023-02-11T05:25:22;102181.97;;;10.75;100.00
56402;BME280;42299;35.160;26.100;2023-02-11T05:26:43;102178.41;;;10.75;100.00
56402;BME280;42299;35.160;26.100;2023-02-11T05:28:06;102173.16;;;10.76;100.00
56402;BME280;42299;35.160;26.100;2023-02-11T05:29:27;102173.13;;;10.75;100.00
56402;BME280;42299;35.160;26.100;2023-02-11T05:30:49;102185.50;;;10.76;100.00
56402;BME280;42299;35.160;26.100;2023-02-11T05:32:11;102186.38;;;10.76;100.00
56402;BME280;42299;35.160;26.100;2023-02-11T05:33:33;102176.78;;;10.78;100.00
56402;BME280;42299;35.160;26.100;2023-02-11T05:34:55;102181.16;;;10.78;100.00
56402;BME280;42299;35.160;26.100;2023-02-11T05:36:17;102183.75;;;10.76;100.00
56402;BME280;42299;35.160;26.100;2023-02-11T05:37:39;102182.06;;;10.78;100.00
56402;BME280;42299;35.160;26.100;2023-02-11T05:39:02;102196.25;;;10.81;100.00
56402;BME280;42299;35.160;26.100;2023-02-11T05:40:24;102187.47;;;10.82;100.00
56402;BME280;42299;35.160;26.100;2023-02-11T05:41:46;102186.66;;;10.84;100.00
56402;BME280;42299;35.160;26.100;2023-02-11T05:43:09;102192.97;;;10.88;100.00
56402;BME280;42299;35.160;26.100;2023-02-11T05:44:31;102193.09;;;10.91;100.00
56402;BME280;42299;35.160;26.100;2023-02-11T05:45:53;102185.28;;;10.94;100.00
56402;BME280;42299;35.160;26.100;2023-02-11T05:47:14;102195.03;;;10.96;100.00
56402;BME280;42299;35.160;26.100;2023-02-11T05:48:37;102184.59;;;10.99;100.00
56402;BME280;42299;35.160;26.100;2023-02-11T05:49:58;102177.66;;;11.01;100.00
56402;BME280;42299;35.160;26.100;2023-02-11T05:51:20;102191.00;;;11.06;100.00
56402;BME280;42299;35.160;26.100;2023-02-11T05:52:41;102188.44;;;11.07;100.00
56402;BME280;42299;35.160;26.100;2023-02-11T05:54:05;102194.66;;;11.09;100.00
56402;BME280;42299;35.160;26.100;2023-02-11T05:55:27;102190.34;;;11.11;100.00
56402;BME280;42299;35.160;26.100;2023-02-11T05:56:49;102193.03;;;11.13;100.00
56402;BME280;42299;35.160;26.100;2023-02-11T05:58:11;102186.09;;;11.16;100.00
56402;BME280;42299;35.160;26.100;2023-02-11T05:59:33;102195.00;;;11.18;100.00
56402;BME280;42299;35.160;26.100;2023-02-11T06:00:55;102193.31;;;11.21;100.00
56402;BME280;42299;35.160;26.100;2023-02-11T06:02:16;102196.03;;;11.22;100.00
56402;BME280;42299;35.160;26.100;2023-02-11T06:03:39;102190.84;;;11.25;100.00
56402;BME280;42299;35.160;26.100;2023-02-11T06:05:01;102198.81;;;11.27;100.00
56402;BME280;42299;35.160;26.100;2023-02-11T06:06:23;102196.25;;;11.28;100.00
56402;BME280;42299;35.160;26.100;2023-02-11T06:07:46;102198.13;;;11.32;100.00
56402;BME280;42299;35.160;26.100;2023-02-11T06:09:09;102192.06;;;11.35;100.00
56402;BME280;42299;35.160;26.100;2023-02-11T06:10:31;102194.75;;;11.36;100.00
56402;BME280;42299;35.160;26.100;2023-02-11T06:11:54;102189.56;;;11.39;100.00
56402;BME280;42299;35.160;26.100;2023-02-11T06:13:15;102199.38;;;11.42;100.00
56402;BME280;42299;35.160;26.100;2023-02-11T06:14:41;102196.81;;;11.45;100.00
56402;BME280;42299;35.160;26.100;2023-02-11T06:16:04;102190.84;;;11.50;100.00
56402;BME280;42299;35.160;26.100;2023-02-11T06:17:26;102195.41;;;11.54;100.00
56402;BME280;42299;35.160;26.100;2023-02-11T06:18:51;102205.19;;;11.57;100.00
56402;BME280;42299;35.160;26.100;2023-02-11T06:20:13;102206.97;;;11.58;100.00
56402;BME280;42299;35.160;26.100;2023-02-11T06:21:35;102204.41;;;11.59;100.00
56402;BME280;42299;35.160;26.100;2023-02-11T06:22:57;102199.16;;;11.61;100.00
56402;BME280;42299;35.160;26.100;2023-02-11T06:24:20;102195.72;;;11.64;100.00
56402;BME280;42299;35.160;26.100;2023-02-11T06:25:42;102204.66;;;11.67;100.00
56402;BME280;42299;35.160;26.100;2023-02-11T06:27:04;102209.97;;;11.69;100.00
56402;BME280;42299;35.160;26.100;2023-02-11T06:28:27;102212.81;;;11.73;100.00
56402;BME280;42299;35.160;26.100;2023-02-11T06:29:50;102215.56;;;11.75;100.00
56402;BME280;42299;35.160;26.100;2023-02-11T06:31:13;102211.25;;;11.78;100.00
56402;BME280;42299;35.160;26.100;2023-02-11T06:32:36;102213.00;;;11.78;100.00
56402;BME280;42299;35.160;26.100;2023-02-11T06:33:57;102212.94;;;11.76;100.00
56402;BME280;42299;35.160;26.100;2023-02-11T06:35:19;102214.66;;;11.76;99.91
56402;BME280;42299;35.160;26.100;2023-02-11T06:36:41;102219.03;;;11.74;99.52
56402;BME280;42299;35.160;26.100;2023-02-11T06:38:03;102218.94;;;11.72;98.68
56402;BME280;42299;35.160;26.100;2023-02-11T06:39:27;102227.78;;;11.73;97.87
56402;BME280;42299;35.160;26.100;2023-02-11T06:40:49;102216.28;;;11.72;98.12
56402;BME280;42299;35.160;26.100;2023-02-11T06:42:11;102222.59;;;11.74;98.47
56402;BME280;42299;35.160;26.100;2023-02-11T06:43:33;102217.28;;;11.74;98.21
56402;BME280;42299;35.160;26.100;2023-02-11T06:44:54;102219.03;;;11.74;98.43
56402;BME280;42299;35.160;26.100;2023-02-11T06:46:17;102225.22;;;11.74;98.83
56402;BME280;42299;35.160;26.100;2023-02-11T06:47:39;102222.63;;;11.76;99.09
56402;BME280;42299;35.160;26.100;2023-02-11T06:49:02;102226.13;;;11.75;99.82
56402;BME280;42299;35.160;26.100;2023-02-11T06:50:23;102228.69;;;11.73;100.00
56402;BME280;42299;35.160;26.100;2023-02-11T06:51:46;102219.78;;;11.71;100.00
56402;BME280;42299;35.160;26.100;2023-02-11T06:53:09;102232.94;;;11.70;100.00
56402;BME280;42299;35.160;26.100;2023-02-11T06:54:32;102225.84;;;11.69;100.00
56402;BME280;42299;35.160;26.100;2023-02-11T06:55:54;102226.72;;;11.68;99.55
56402;BME280;42299;35.160;26.100;2023-02-11T06:57:16;102231.97;;;11.66;98.99
56402;BME280;42299;35.160;26.100;2023-02-11T06:58:39;102232.75;;;11.64;98.36
56402;BME280;42299;35.160;26.100;2023-02-11T07:00:01;102235.31;;;11.62;97.81
56402;BME280;42299;35.160;26.100;2023-02-11T07:01:25;102232.66;;;11.61;97.08
56402;BME280;42299;35.160;26.100;2023-02-11T07:02:50;102236.97;;;11.58;95.66
56402;BME280;42299;35.160;26.100;2023-02-11T07:04:26;102233.63;;;11.64;96.60
56402;BME280;42299;35.160;26.100;2023-02-11T07:05:49;102242.63;;;11.69;96.96
56402;BME280;42299;35.160;26.100;2023-02-11T07:07:11;102229.41;;;11.69;97.10
56402;BME280;42299;35.160;26.100;2023-02-11T07:08:34;102237.34;;;11.69;97.22
56402;BME280;42299;35.160;26.100;2023-02-11T07:10:03;102237.25;;;11.66;96.83
56402;BME280;42299;35.160;26.100;2023-02-11T07:11:28;102240.69;;;11.64;97.15
56402;BME280;42299;35.160;26.100;2023-02-11T07:12:53;102243.25;;;11.62;97.35
56402;BME280;42299;35.160;26.100;2023-02-11T07:14:15;102240.63;;;11.62;98.60
56402;BME280;42299;35.160;26.100;2023-02-11T07:15:37;102241.69;;;11.67;98.18
56402;BME280;42299;35.160;26.100;2023-02-11T07:16:59;102233.53;;;11.85;98.09
56402;BME280;42299;35.160;26.100;2023-02-11T07:18:23;102233.84;;;11.94;97.94
56402;BME280;42299;35.160;26.100;2023-02-11T07:19:46;102240.25;;;12.01;96.58
56402;BME280;42299;35.160;26.100;2023-02-11T07:21:09;102230.97;;;12.13;94.94